Time;durP1;ratioP1;P1;durP2;ratioP2;P2;SDS_P1;SDS_P2;PMS_P1;PMS_P2;Temp;Humidity;BMP_temperature;BMP_pressure;BME280_temperature;BME280_humidity;BME280_pressure;Samples;Min_cycle;Max_cycle;Signal;HPM_P1;HPM_P2
2023/10/28 00:00:32;;;;;;;1.90;0.70;;;10.50;8.10;;;;;;4994302;28;20181;-69
2023/10/28 00:02:58;;;;;;;1.60;0.50;;;10.50;7.40;;;;;;4994127;28;20420;-68
2023/10/28 00:05:24;;;;;;;1.53;0.60;;;10.50;7.20;;;;;;4994374;28;20268;-69
2023/10/28 00:07:50;;;;;;;1.50;0.50;;;10.50;7.50;;;;;;4993714;28;20208;-69
2023/10/28 00:10:16;;;;;;;2.53;0.70;;;10.40;6.10;;;;;;4994545;28;20416;-69
2023/10/28 00:12:41;;;;;;;4.00;1.17;;;10.40;5.80;;;;;;4994062;28;20852;-69
2023/10/28 00:15:08;;;;;;;1.70;0.77;;;10.40;5.50;;;;;;4992547;28;20520;-68
2023/10/28 00:17:33;;;;;;;1.50;0.50;;;10.40;5.50;;;;;;4993994;28;20188;-69
2023/10/28 00:20:04;;;;;;;1.83;0.60;;;10.30;5.90;;;;;;4993808;28;20423;-67
2023/10/28 00:22:31;;;;;;;1.60;0.67;;;10.30;5.90;;;;;;4993871;28;20272;-68
2023/10/28 00:24:58;;;;;;;2.97;0.60;;;10.20;5.30;;;;;;4992290;28;20419;-67
2023/10/28 00:27:24;;;;;;;1.60;0.60;;;10.30;4.70;;;;;;4993342;28;20443;-68
2023/10/28 00:29:52;;;;;;;1.73;0.70;;;10.30;4.80;;;;;;4993165;28;20419;-67
2023/10/28 00:32:17;;;;;;;1.60;0.60;;;10.30;5.30;;;;;;4993623;28;20474;-67
2023/10/28 00:34:43;;;;;;;1.67;0.60;;;10.30;4.20;;;;;;4993791;28;20771;-68
2023/10/28 00:37:08;;;;;;;2.37;1.13;;;10.20;4.70;;;;;;4993520;28;20708;-70
2023/10/28 00:39:34;;;;;;;4.03;1.17;;;10.30;3.20;;;;;;4993187;28;20211;-68
2023/10/28 00:42:01;;;;;;;1.60;0.67;;;10.30;3.90;;;;;;4993260;28;20177;-67
2023/10/28 00:44:26;;;;;;;2.77;0.70;;;10.20;4.70;;;;;;4993439;28;20183;-67
2023/10/28 00:46:52;;;;;;;1.80;0.87;;;10.10;5.30;;;;;;4993270;28;20936;-67
2023/10/28 00:49:18;;;;;;;1.80;0.63;;;10.10;4.30;;;;;;4993038;28;20192;-68
2023/10/28 00:51:45;;;;;;;2.73;0.73;;;10.10;5.30;;;;;;4991767;28;20673;-68
2023/10/28 00:54:11;;;;;;;2.10;1.00;;;10.10;5.20;;;;;;4993242;28;20173;-68
2023/10/28 00:56:37;;;;;;;1.60;0.53;;;10.20;4.20;;;;;;4992344;28;20879;-68
2023/10/28 00:59:03;;;;;;;1.93;0.73;;;10.30;3.60;;;;;;4993642;28;20496;-68
2023/10/28 01:01:28;;;;;;;3.47;0.80;;;10.30;2.90;;;;;;4993219;28;20184;-68
2023/10/28 01:03:55;;;;;;;2.00;0.70;;;10.20;3.20;;;;;;4993447;28;20196;-68
2023/10/28 01:06:21;;;;;;;2.30;0.80;;;10.20;4.30;;;;;;5019811;23;20215;-69
2023/10/28 01:08:47;;;;;;;1.90;0.77;;;10.20;4.40;;;;;;5011731;28;20426;-69
2023/10/28 01:11:14;;;;;;;2.97;0.90;;;10.20;4.00;;;;;;5011484;28;20203;-68
2023/10/28 01:13:39;;;;;;;1.97;0.93;;;10.20;3.50;;;;;;5011652;28;20188;-68
2023/10/28 01:16:08;;;;;;;1.70;0.67;;;10.30;3.30;;;;;;5011687;28;20418;-70
2023/10/28 01:18:36;;;;;;;2.10;0.83;;;10.30;4.00;;;;;;4992069;28;20181;-69
2023/10/28 01:21:09;;;;;;;2.00;0.70;;;10.30;3.50;;;;;;5008778;28;20454;-68
2023/10/28 01:23:35;;;;;;;4.63;0.80;;;10.40;3.00;;;;;;4996221;28;20420;-69
2023/10/28 01:26:01;;;;;;;1.97;0.70;;;10.40;4.60;;;;;;4996038;28;21025;-68
2023/10/28 01:28:27;;;;;;;2.20;1.20;;;10.40;4.50;;;;;;4995771;28;20737;-68
2023/10/28 01:30:52;;;;;;;2.67;1.13;;;10.50;4.20;;;;;;4995713;28;20479;-69
2023/10/28 01:33:19;;;;;;;2.43;0.90;;;10.50;4.80;;;;;;4996018;28;20177;-69
2023/10/28 01:35:45;;;;;;;2.30;0.90;;;10.50;5.00;;;;;;4995934;28;20227;-69
2023/10/28 01:38:11;;;;;;;2.63;0.97;;;10.50;4.80;;;;;;4995688;28;20439;-69
2023/10/28 01:40:37;;;;;;;4.37;1.40;;;10.60;4.70;;;;;;4995495;28;20238;-69
2023/10/28 01:43:03;;;;;;;2.27;1.13;;;10.60;4.50;;;;;;4995904;28;20408;-69
2023/10/28 01:45:28;;;;;;;2.07;1.10;;;10.60;4.30;;;;;;4997012;28;20195;-69
2023/10/28 01:47:54;;;;;;;5.00;1.20;;;10.60;4.30;;;;;;4996448;28;20201;-69
2023/10/28 01:50:21;;;;;;;2.27;1.00;;;10.60;4.30;;;;;;4995505;28;20937;-68
2023/10/28 01:52:47;;;;;;;2.73;1.17;;;10.60;4.80;;;;;;4995858;28;20176;-68
2023/10/28 01:55:12;;;;;;;1.80;0.70;;;10.60;3.00;;;;;;4995516;28;21003;-69
2023/10/28 01:57:38;;;;;;;3.00;1.13;;;10.70;3.00;;;;;;4995367;28;20192;-69
2023/10/28 02:00:12;;;;;;;2.17;0.90;;;10.60;3.50;;;;;;4995280;28;20177;-69
2023/10/28 02:02:38;;;;;;;4.33;1.57;;;10.50;3.30;;;;;;5010569;28;20423;-69
2023/10/28 02:05:04;;;;;;;4.43;1.17;;;10.50;5.20;;;;;;4993946;28;20480;-69
2023/10/28 02:07:29;;;;;;;4.93;1.20;;;10.40;5.20;;;;;;4995058;28;20534;-69
2023/10/28 02:09:55;;;;;;;2.63;0.90;;;10.30;4.60;;;;;;4994993;28;20503;-69
2023/10/28 02:12:21;;;;;;;3.07;1.37;;;10.30;5.40;;;;;;4995175;28;20237;-69
2023/10/28 02:14:47;;;;;;;2.80;1.20;;;10.20;5.40;;;;;;4993865;28;20428;-69
2023/10/28 02:17:13;;;;;;;5.03;1.20;;;10.10;4.80;;;;;;4995218;28;20197;-69
2023/10/28 02:19:39;;;;;;;3.10;1.13;;;10.10;5.30;;;;;;4994999;28;20173;-69
2023/10/28 02:22:05;;;;;;;4.27;1.30;;;10.00;5.20;;;;;;4995286;28;20477;-69
2023/10/28 02:24:31;;;;;;;12.13;1.50;;;9.90;6.60;;;;;;4994910;28;20169;-69
2023/10/28 02:26:57;;;;;;;6.03;2.23;;;10.00;5.20;;;;;;4993739;28;20447;-69
2023/10/28 02:29:22;;;;;;;2.00;0.80;;;10.00;4.80;;;;;;4993417;28;20249;-69
2023/10/28 02:31:48;;;;;;;7.30;1.13;;;10.00;5.20;;;;;;4994727;28;20295;-69
2023/10/28 02:34:14;;;;;;;2.60;0.80;;;10.10;4.80;;;;;;4994969;28;20529;-69
2023/10/28 02:36:40;;;;;;;4.20;1.40;;;10.10;4.00;;;;;;4994828;28;20226;-69
2023/10/28 02:39:06;;;;;;;3.20;1.33;;;10.20;2.50;;;;;;4994701;28;20499;-69
2023/10/28 02:41:32;;;;;;;3.37;1.10;;;10.30;3.30;;;;;;4994702;28;20180;-69
2023/10/28 02:43:58;;;;;;;4.63;1.20;;;10.30;2.90;;;;;;4994720;28;20412;-69
2023/10/28 02:46:25;;;;;;;3.63;1.40;;;10.30;3.00;;;;;;4994682;28;20897;-69
2023/10/28 02:48:51;;;;;;;7.60;1.60;;;10.40;1.00;;;;;;4994598;28;20419;-69
2023/10/28 02:51:17;;;;;;;4.80;1.73;;;10.40;1.00;;;;;;4994064;28;20455;-69
2023/10/28 02:53:43;;;;;;;6.20;1.47;;;10.40;2.00;;;;;;4994511;28;20442;-69
2023/10/28 02:56:09;;;;;;;2.60;1.43;;;10.50;1.70;;;;;;4992964;28;20421;-70
2023/10/28 02:58:39;;;;;;;3.77;1.40;;;10.60;1.10;;;;;;4994437;28;20165;-70
2023/10/28 03:01:13;;;;;;;6.63;1.20;;;10.60;1.10;;;;;;4994444;28;20161;-70
2023/10/28 03:03:39;;;;;;;5.50;1.53;;;10.70;1.00;;;;;;4994505;28;20400;-70
2023/10/28 03:06:06;;;;;;;6.70;1.50;;;10.70;1.00;;;;;;4994228;28;20424;-72
2023/10/28 03:08:31;;;;;;;2.90;1.30;;;10.70;1.00;;;;;;4994200;28;20489;-70
2023/10/28 03:10:57;;;;;;;3.77;1.70;;;10.70;1.00;;;;;;4994074;28;20460;-70
2023/10/28 03:13:23;;;;;;;4.37;1.43;;;10.70;1.10;;;;;;4994196;28;20610;-70
2023/10/28 03:15:49;;;;;;;3.00;1.80;;;10.70;1.10;;;;;;4994209;28;20172;-70
2023/10/28 03:18:15;;;;;;;3.30;1.30;;;10.70;1.20;;;;;;4994170;28;20432;-70
2023/10/28 03:20:41;;;;;;;2.33;1.00;;;10.70;1.20;;;;;;4994072;28;20208;-70
2023/10/28 03:23:07;;;;;;;7.10;1.40;;;10.70;1.40;;;;;;4992879;28;20463;-71
2023/10/28 03:25:33;;;;;;;3.20;1.10;;;10.70;2.50;;;;;;5009193;28;20223;-70
2023/10/28 03:28:02;;;;;;;3.20;1.03;;;10.80;2.20;;;;;;4994393;28;20259;-71
2023/10/28 03:30:27;;;;;;;2.57;1.10;;;10.80;2.80;;;;;;4993941;28;20421;-71
2023/10/28 03:32:53;;;;;;;5.23;1.50;;;10.80;3.20;;;;;;5009061;28;20499;-70
2023/10/28 03:35:18;;;;;;;4.70;1.13;;;10.70;2.10;;;;;;4994021;28;20178;-70
2023/10/28 03:37:44;;;;;;;3.23;1.57;;;10.80;2.60;;;;;;5009329;28;20254;-70
2023/10/28 03:40:11;;;;;;;9.43;1.13;;;10.80;2.60;;;;;;5009254;28;20180;-70
2023/10/28 03:42:36;;;;;;;3.93;2.20;;;10.80;2.10;;;;;;4993803;28;20181;-70
2023/10/28 03:45:07;;;;;;;3.60;1.60;;;10.70;3.40;;;;;;4993342;28;20420;-70
2023/10/28 03:47:33;;;;;;;6.90;2.37;;;10.70;2.50;;;;;;4993509;28;20439;-70
2023/10/28 03:49:59;;;;;;;4.67;1.77;;;10.70;2.90;;;;;;4993388;28;20423;-70
2023/10/28 03:52:25;;;;;;;2.93;1.20;;;10.80;2.50;;;;;;4993484;28;20492;-70
2023/10/28 03:54:51;;;;;;;3.80;2.27;;;10.80;2.70;;;;;;4993383;28;20246;-70
2023/10/28 03:57:17;;;;;;;4.77;1.33;;;10.70;3.20;;;;;;4993559;28;20443;-71
2023/10/28 03:59:45;;;;;;;3.27;1.20;;;10.60;3.70;;;;;;4994032;28;20173;-70
2023/10/28 04:02:11;;;;;;;5.63;1.60;;;10.70;3.10;;;;;;4993329;28;20420;-70
2023/10/28 04:04:36;;;;;;;4.27;1.20;;;10.70;3.20;;;;;;4993109;28;20431;-70
2023/10/28 04:07:02;;;;;;;6.53;1.50;;;10.60;2.70;;;;;;4993160;28;20635;-70
2023/10/28 04:09:28;;;;;;;3.53;1.70;;;10.50;3.10;;;;;;4993079;28;20181;-70
2023/10/28 04:11:54;;;;;;;5.13;1.40;;;10.50;2.90;;;;;;5008280;28;20205;-70
2023/10/28 04:14:19;;;;;;;4.97;1.10;;;10.40;2.90;;;;;;4993050;28;20412;-70
2023/10/28 04:16:45;;;;;;;3.70;1.50;;;10.30;3.20;;;;;;4992894;28;20202;-70
2023/10/28 04:19:11;;;;;;;2.67;1.33;;;10.20;3.20;;;;;;4992993;28;20257;-70
2023/10/28 04:21:37;;;;;;;3.10;1.00;;;10.10;3.70;;;;;;4992798;28;20508;-70
2023/10/28 04:24:03;;;;;;;4.33;1.40;;;10.20;4.00;;;;;;4992673;28;20551;-70
2023/10/28 04:26:29;;;;;;;4.53;1.07;;;10.20;3.00;;;;;;4992598;28;20439;-70
2023/10/28 04:28:59;;;;;;;3.30;1.17;;;10.20;3.10;;;;;;4992634;28;20447;-70
2023/10/28 04:31:28;;;;;;;2.30;1.00;;;10.10;3.30;;;;;;4992605;28;20362;-69
2023/10/28 04:33:53;;;;;;;4.00;1.33;;;10.10;1.60;;;;;;4992749;28;20415;-70
2023/10/28 04:36:19;;;;;;;2.87;1.00;;;10.00;2.40;;;;;;4992413;28;20419;-70
2023/10/28 04:38:44;;;;;;;4.33;1.00;;;10.00;2.00;;;;;;4992363;28;20598;-70
2023/10/28 04:41:10;;;;;;;1.97;1.03;;;10.00;2.20;;;;;;5007429;28;20235;-70
2023/10/28 04:43:36;;;;;;;3.40;1.67;;;10.00;1.40;;;;;;4992529;28;20259;-70
2023/10/28 04:46:01;;;;;;;6.27;1.27;;;10.00;1.90;;;;;;4992468;28;20180;-70
2023/10/28 04:48:29;;;;;;;3.77;1.30;;;10.00;2.00;;;;;;4992117;28;20200;-70
2023/10/28 04:50:55;;;;;;;3.03;1.40;;;10.00;1.00;;;;;;4992099;28;20209;-70
2023/10/28 04:53:22;;;;;;;2.20;1.00;;;10.10;1.00;;;;;;4992110;28;20790;-70
2023/10/28 04:55:48;;;;;;;2.43;1.33;;;10.20;1.00;;;;;;4991375;28;20173;-70
2023/10/28 04:58:14;;;;;;;2.63;0.70;;;10.40;1.00;;;;;;4992027;28;20990;-70
2023/10/28 05:00:40;;;;;;;5.20;2.00;;;10.50;1.00;;;;;;4991995;28;20183;-70
2023/10/28 05:03:06;;;;;;;3.63;1.33;;;10.50;1.00;;;;;;4990685;28;20420;-70
2023/10/28 05:05:31;;;;;;;4.47;0.90;;;10.50;1.00;;;;;;4991973;28;20408;-70
2023/10/28 05:07:57;;;;;;;3.70;1.03;;;10.60;1.00;;;;;;4991891;28;20212;-70
2023/10/28 05:10:22;;;;;;;3.17;1.77;;;10.70;1.00;;;;;;4991922;28;20173;-70
2023/10/28 05:12:49;;;;;;;2.60;1.30;;;10.80;1.00;;;;;;4991864;28;20302;-70
2023/10/28 05:15:15;;;;;;;3.80;1.00;;;10.80;1.00;;;;;;4991865;28;20170;-70
2023/10/28 05:17:41;;;;;;;2.87;1.20;;;10.80;1.00;;;;;;4991839;28;20432;-70
2023/10/28 05:20:08;;;;;;;2.90;1.20;;;10.90;1.00;;;;;;4992035;28;20843;-70
2023/10/28 05:22:35;;;;;;;2.30;0.90;;;10.80;1.00;;;;;;4991961;28;20204;-70
2023/10/28 05:25:00;;;;;;;5.03;1.53;;;10.70;1.00;;;;;;4992290;28;20908;-71
2023/10/28 05:27:26;;;;;;;3.50;0.93;;;10.60;1.00;;;;;;4991845;28;20502;-70
2023/10/28 05:29:51;;;;;;;2.30;1.10;;;10.60;1.00;;;;;;4991779;28;20622;-70
2023/10/28 05:32:17;;;;;;;2.83;1.30;;;10.60;1.00;;;;;;4991774;28;20303;-70
2023/10/28 05:34:43;;;;;;;3.00;1.13;;;10.60;1.00;;;;;;4991850;28;20177;-70
2023/10/28 05:37:09;;;;;;;3.03;0.77;;;10.60;1.00;;;;;;4991684;28;20197;-70
2023/10/28 05:39:34;;;;;;;3.70;1.47;;;10.50;1.00;;;;;;4991935;28;20439;-70
2023/10/28 05:42:00;;;;;;;3.10;1.40;;;10.50;1.00;;;;;;5006748;28;20599;-70
2023/10/28 05:44:25;;;;;;;2.80;0.80;;;10.50;1.00;;;;;;4991598;28;20704;-70
2023/10/28 05:46:51;;;;;;;3.10;1.40;;;10.40;1.00;;;;;;4991680;28;20255;-70
2023/10/28 05:49:16;;;;;;;5.30;1.27;;;10.50;1.00;;;;;;4991585;28;20559;-70
2023/10/28 05:51:43;;;;;;;2.90;1.80;;;10.60;1.00;;;;;;4991392;28;20221;-70
2023/10/28 05:54:11;;;;;;;4.37;1.80;;;10.60;1.00;;;;;;4991727;28;20235;-70
2023/10/28 05:56:36;;;;;;;3.33;1.33;;;10.50;1.00;;;;;;4991325;28;20427;-70
2023/10/28 05:59:02;;;;;;;2.90;1.30;;;10.50;1.00;;;;;;4991391;28;20819;-70
2023/10/28 06:01:27;;;;;;;10.90;1.53;;;10.60;1.00;;;;;;4991397;28;20195;-70
2023/10/28 06:03:53;;;;;;;4.57;1.40;;;10.70;1.00;;;;;;5006458;28;20199;-70
2023/10/28 06:06:18;;;;;;;2.87;1.07;;;10.70;1.00;;;;;;4992088;28;20241;-70
2023/10/28 06:08:44;;;;;;;3.37;1.60;;;10.70;1.00;;;;;;4995067;28;20186;-70
2023/10/28 06:11:09;;;;;;;2.83;1.67;;;10.70;1.00;;;;;;4994943;28;20212;-70
2023/10/28 06:13:36;;;;;;;4.43;1.50;;;10.70;1.00;;;;;;4995050;28;20175;-70
2023/10/28 06:16:01;;;;;;;4.03;1.43;;;10.70;1.00;;;;;;4995006;28;20207;-70
2023/10/28 06:18:27;;;;;;;4.30;1.33;;;10.70;1.00;;;;;;4994836;28;20428;-70
2023/10/28 06:20:53;;;;;;;4.50;1.40;;;10.60;1.00;;;;;;4994726;28;20181;-70
2023/10/28 06:23:18;;;;;;;2.47;1.20;;;10.60;1.00;;;;;;4994747;28;20176;-70
2023/10/28 06:25:44;;;;;;;3.73;1.03;;;10.60;1.00;;;;;;4994789;28;20412;-70
2023/10/28 06:28:10;;;;;;;2.57;1.10;;;10.60;1.10;;;;;;4994655;28;20287;-70
2023/10/28 06:30:37;;;;;;;2.60;1.10;;;10.60;1.10;;;;;;5009698;28;20188;-70
2023/10/28 06:33:03;;;;;;;3.93;1.33;;;10.60;1.30;;;;;;4994603;28;20409;-70
2023/10/28 06:35:30;;;;;;;3.13;1.10;;;10.50;1.00;;;;;;4994612;28;20791;-70
2023/10/28 06:37:56;;;;;;;2.40;1.07;;;10.50;1.60;;;;;;4995158;28;20193;-70
2023/10/28 06:40:21;;;;;;;2.43;0.90;;;10.40;1.30;;;;;;4995245;28;20790;-70
2023/10/28 06:42:47;;;;;;;4.83;1.50;;;10.40;1.80;;;;;;4994527;28;20633;-70
2023/10/28 06:45:12;;;;;;;5.73;1.40;;;10.50;1.00;;;;;;4994578;28;20179;-70
2023/10/28 06:47:38;;;;;;;4.10;1.50;;;10.50;1.50;;;;;;4994497;28;20235;-70
2023/10/28 06:50:06;;;;;;;2.60;0.90;;;10.50;1.10;;;;;;4994220;28;20180;-70
2023/10/28 06:52:32;;;;;;;2.60;1.20;;;10.50;1.10;;;;;;4994356;28;20200;-70
2023/10/28 06:54:59;;;;;;;2.27;1.30;;;10.50;1.10;;;;;;4994485;28;20415;-70
2023/10/28 06:57:25;;;;;;;4.70;1.30;;;10.60;1.10;;;;;;4992942;28;20858;-70
2023/10/28 06:59:50;;;;;;;2.73;1.00;;;10.70;1.20;;;;;;4992983;28;20450;-70
2023/10/28 07:02:16;;;;;;;3.40;1.10;;;10.70;1.40;;;;;;4994253;28;20499;-70
2023/10/28 07:04:41;;;;;;;2.53;1.50;;;10.80;2.40;;;;;;4994089;28;20177;-70
2023/10/28 07:07:12;;;;;;;3.10;1.37;;;10.80;2.20;;;;;;4993985;28;20274;-69
2023/10/28 07:09:38;;;;;;;3.40;1.80;;;10.90;3.20;;;;;;4993832;28;20751;-69
2023/10/28 07:12:04;;;;;;;4.43;1.40;;;11.00;1.40;;;;;;4993833;28;20455;-69
2023/10/28 07:14:30;;;;;;;2.47;0.70;;;11.10;1.50;;;;;;4993958;28;20634;-69
2023/10/28 07:16:55;;;;;;;2.93;1.30;;;11.20;1.50;;;;;;4993635;28;20475;-69
2023/10/28 07:19:21;;;;;;;2.67;1.20;;;11.10;1.20;;;;;;4992667;28;20169;-69
2023/10/28 07:21:46;;;;;;;3.77;1.07;;;11.20;1.50;;;;;;4993958;28;20188;-68
2023/10/28 07:24:12;;;;;;;2.10;1.00;;;11.20;1.00;;;;;;4993646;28;20183;-68
2023/10/28 07:26:38;;;;;;;2.73;1.43;;;11.20;1.00;;;;;;5008738;28;20212;-68
2023/10/28 07:29:06;;;;;;;3.77;1.10;;;11.30;1.00;;;;;;4993909;28;20193;-70
2023/10/28 07:31:31;;;;;;;3.00;0.93;;;11.40;1.00;;;;;;4993394;28;20491;-69
2023/10/28 07:33:57;;;;;;;3.70;1.70;;;11.40;1.00;;;;;;4993486;28;20920;-68
2023/10/28 07:36:23;;;;;;;3.73;0.97;;;11.40;1.00;;;;;;4993476;28;20266;-69
2023/10/28 07:38:49;;;;;;;3.73;1.90;;;11.60;1.00;;;;;;4993436;28;20173;-68
2023/10/28 07:41:14;;;;;;;2.57;1.50;;;11.50;1.00;;;;;;4993381;28;20452;-68
2023/10/28 07:43:40;;;;;;;3.93;1.40;;;11.50;1.00;;;;;;4993801;28;20188;-68
2023/10/28 07:46:05;;;;;;;1.97;0.87;;;11.60;1.00;;;;;;4993692;28;20681;-68
2023/10/28 07:48:31;;;;;;;1.80;0.80;;;11.50;1.00;;;;;;4993271;28;20207;-68
2023/10/28 07:50:57;;;;;;;3.40;1.70;;;11.70;1.00;;;;;;4993298;28;20207;-68
2023/10/28 07:53:22;;;;;;;3.30;1.80;;;11.80;1.00;;;;;;4993381;28;20265;-68
2023/10/28 07:55:48;;;;;;;2.10;1.03;;;12.10;1.00;;;;;;4993599;28;20841;-68
2023/10/28 07:58:13;;;;;;;4.47;1.53;;;12.20;1.00;;;;;;4993218;28;20291;-68
2023/10/28 08:00:39;;;;;;;2.33;1.20;;;12.30;1.00;;;;;;4992937;28;20269;-70
2023/10/28 08:03:05;;;;;;;4.63;1.40;;;12.30;1.00;;;;;;4991736;28;20212;-68
2023/10/28 08:05:30;;;;;;;3.53;1.30;;;12.40;1.00;;;;;;5007763;28;20589;-69
2023/10/28 08:07:56;;;;;;;2.87;1.40;;;12.70;1.00;;;;;;4992618;28;20204;-69
2023/10/28 08:10:25;;;;;;;5.73;1.53;;;12.90;1.00;;;;;;4992556;28;20187;-70
2023/10/28 08:12:56;;;;;;;4.73;1.27;;;13.00;1.00;;;;;;4992671;28;20598;-70
2023/10/28 08:15:24;;;;;;;2.27;1.00;;;13.20;1.00;;;;;;4992773;28;20420;-70
2023/10/28 08:17:50;;;;;;;2.23;1.00;;;13.20;1.00;;;;;;4992569;28;20742;-70
2023/10/28 08:20:17;;;;;;;2.80;0.80;;;13.30;1.00;;;;;;4992329;28;20416;-67
2023/10/28 08:22:44;;;;;;;3.20;1.53;;;13.20;1.00;;;;;;4992594;28;20788;-70
2023/10/28 08:25:11;;;;;;;4.37;1.40;;;13.30;1.00;;;;;;4992674;28;20415;-68
2023/10/28 08:27:37;;;;;;;2.53;1.23;;;13.50;1.00;;;;;;4992501;28;20540;-69
2023/10/28 08:30:03;;;;;;;2.03;1.37;;;13.70;1.00;;;;;;4992161;28;20424;-68
2023/10/28 08:32:31;;;;;;;5.50;1.40;;;13.80;1.00;;;;;;4992377;28;20466;-69
2023/10/28 08:34:56;;;;;;;2.60;1.13;;;13.80;1.00;;;;;;4992382;28;20448;-69
2023/10/28 08:37:23;;;;;;;2.97;1.30;;;13.80;1.00;;;;;;4992291;28;20909;-69
2023/10/28 08:39:48;;;;;;;3.00;1.60;;;13.80;1.00;;;;;;4992022;28;20841;-68
2023/10/28 08:42:14;;;;;;;2.57;1.23;;;13.90;1.00;;;;;;4992247;28;20507;-69
2023/10/28 08:44:41;;;;;;;10.10;1.47;;;14.10;1.00;;;;;;4992328;28;20176;-69
2023/10/28 08:47:07;;;;;;;2.73;1.03;;;14.20;1.00;;;;;;4992115;28;20436;-69
2023/10/28 08:49:36;;;;;;;2.43;1.30;;;14.30;1.00;;;;;;4991713;28;20979;-69
2023/10/28 08:52:03;;;;;;;4.43;1.80;;;14.00;1.00;;;;;;4992159;28;20220;-69
2023/10/28 08:54:32;;;;;;;4.73;1.87;;;14.10;1.00;;;;;;4992239;28;20920;-69
2023/10/28 08:57:00;;;;;;;4.37;1.50;;;14.20;1.00;;;;;;4992009;28;20876;-69
2023/10/28 08:59:27;;;;;;;5.40;1.50;;;14.20;1.00;;;;;;4991843;28;20408;-68
2023/10/28 09:01:56;;;;;;;4.70;2.53;;;14.30;1.00;;;;;;4992005;28;20428;-68
2023/10/28 09:04:21;;;;;;;2.50;1.20;;;14.20;1.00;;;;;;4991964;28;20762;-69
2023/10/28 09:06:52;;;;;;;2.83;1.53;;;14.20;1.00;;;;;;4991725;28;20450;-68
2023/10/28 09:09:20;;;;;;;4.80;1.63;;;14.10;1.00;;;;;;4992033;28;20263;-69
2023/10/28 09:11:47;;;;;;;4.23;1.67;;;14.10;1.00;;;;;;4992062;28;20486;-69
2023/10/28 09:14:13;;;;;;;3.87;2.00;;;14.00;1.00;;;;;;4991985;28;20411;-68
2023/10/28 09:16:38;;;;;;;3.70;1.80;;;14.10;1.00;;;;;;4991957;28;20435;-68
2023/10/28 09:19:05;;;;;;;3.30;1.63;;;14.20;1.00;;;;;;4991706;28;20176;-68
2023/10/28 09:21:31;;;;;;;3.43;1.70;;;14.30;1.00;;;;;;4991638;28;20188;-69
2023/10/28 09:24:00;;;;;;;2.83;2.10;;;14.40;1.00;;;;;;4991801;28;20758;-68
2023/10/28 09:26:26;;;;;;;5.80;1.70;;;14.60;1.00;;;;;;4991748;28;20420;-68
2023/10/28 09:28:52;;;;;;;3.63;1.90;;;14.60;1.00;;;;;;4991819;28;20450;-68
2023/10/28 09:31:24;;;;;;;4.57;2.47;;;14.70;1.00;;;;;;4991305;28;20463;-68
2023/10/28 09:33:50;;;;;;;3.60;2.20;;;14.70;1.00;;;;;;4991645;28;20199;-68
2023/10/28 09:36:16;;;;;;;7.33;2.37;;;14.70;1.00;;;;;;4991683;28;20408;-69
2023/10/28 09:38:45;;;;;;;8.57;2.70;;;14.90;1.00;;;;;;4991579;28;20927;-68
2023/10/28 09:41:11;;;;;;;3.90;1.77;;;15.00;1.00;;;;;;4992107;28;20323;-69
2023/10/28 09:43:40;;;;;;;4.93;1.97;;;15.10;1.00;;;;;;4995933;28;20507;-68
2023/10/28 09:46:06;;;;;;;4.27;1.90;;;15.00;1.00;;;;;;4995925;28;20486;-69
2023/10/28 09:48:36;;;;;;;4.10;2.10;;;15.00;1.00;;;;;;4994847;28;20411;-68
2023/10/28 09:51:02;;;;;;;4.20;2.33;;;15.00;1.00;;;;;;4995591;28;20455;-68
2023/10/28 09:53:33;;;;;;;3.57;1.97;;;14.90;1.00;;;;;;4995542;28;20566;-68
2023/10/28 09:56:04;;;;;;;3.57;2.00;;;14.80;1.00;;;;;;4995456;28;20787;-69
2023/10/28 09:58:41;;;;;;;3.40;1.80;;;14.80;1.00;;;;;;4995109;28;20438;-68
2023/10/28 10:01:16;;;;;;;4.27;2.13;;;14.80;1.00;;;;;;4994958;28;20531;-68
2023/10/28 10:04:11;;;;;;;2.27;1.40;;;14.70;1.00;;;;;;4995208;28;20411;-68
2023/10/28 10:06:37;;;;;;;3.30;1.73;;;14.60;1.00;;;;;;4995057;28;20462;-68
2023/10/28 10:09:06;;;;;;;5.63;2.10;;;14.60;1.00;;;;;;4993612;28;20515;-68
2023/10/28 10:11:32;;;;;;;5.10;2.00;;;14.60;1.00;;;;;;4994698;28;20528;-68
2023/10/28 10:14:11;;;;;;;2.43;1.30;;;14.70;1.00;;;;;;4994937;28;20420;-68
2023/10/28 10:16:36;;;;;;;5.73;2.03;;;14.70;1.00;;;;;;4994659;28;20502;-68
2023/10/28 10:19:10;;;;;;;3.30;2.53;;;14.80;1.00;;;;;;4994785;28;20969;-68
2023/10/28 10:21:36;;;;;;;5.93;2.50;;;15.00;1.00;;;;;;4994784;28;20176;-68
2023/10/28 10:24:06;;;;;;;5.03;2.60;;;15.10;1.00;;;;;;4994734;28;20947;-68
2023/10/28 10:26:34;;;;;;;5.83;2.13;;;15.20;1.00;;;;;;4994730;28;20201;-69
2023/10/28 10:29:03;;;;;;;5.93;2.30;;;15.20;1.00;;;;;;4994712;28;20416;-69
2023/10/28 10:31:31;;;;;;;7.20;2.73;;;15.20;1.00;;;;;;4994370;28;20971;-69
2023/10/28 10:34:05;;;;;;;3.00;2.13;;;15.30;1.00;;;;;;4994480;28;20426;-68
2023/10/28 10:36:38;;;;;;;3.53;2.13;;;15.20;1.00;;;;;;4994499;28;20438;-69
2023/10/28 10:39:20;;;;;;;3.70;2.20;;;15.30;1.00;;;;;;4994399;28;20913;-69
2023/10/28 10:41:52;;;;;;;6.30;3.10;;;15.70;1.00;;;;;;4994607;28;20878;-69
2023/10/28 10:44:34;;;;;;;4.23;2.13;;;15.50;1.00;;;;;;4994318;28;20980;-69
2023/10/28 10:47:01;;;;;;;6.80;2.20;;;15.80;1.00;;;;;;4994254;28;20443;-69
2023/10/28 10:49:27;;;;;;;4.40;2.67;;;15.80;1.00;;;;;;4994360;28;20932;-69
2023/10/28 10:51:53;;;;;;;4.27;2.10;;;15.90;1.00;;;;;;4994245;28;20462;-69
2023/10/28 10:54:18;;;;;;;3.70;2.30;;;16.10;1.00;;;;;;4993639;28;20419;-69
2023/10/28 10:56:49;;;;;;;4.37;2.13;;;16.10;1.00;;;;;;4994851;28;21071;-69
2023/10/28 10:59:14;;;;;;;5.57;2.73;;;16.00;1.00;;;;;;4994602;28;20595;-69
2023/10/28 11:01:41;;;;;;;8.20;2.80;;;16.20;1.00;;;;;;4994718;28;20420;-69
2023/10/28 11:04:07;;;;;;;6.77;2.30;;;16.20;1.00;;;;;;4994444;28;20453;-69
2023/10/28 11:06:34;;;;;;;9.57;3.27;;;15.80;1.00;;;;;;4994254;28;20625;-69
2023/10/28 11:09:05;;;;;;;4.03;2.30;;;16.10;1.00;;;;;;4994562;28;20419;-69
2023/10/28 11:11:35;;;;;;;3.60;2.73;;;16.20;1.00;;;;;;4992543;28;20538;-69
2023/10/28 11:14:04;;;;;;;4.20;2.43;;;16.30;1.00;;;;;;4994043;28;20543;-69
2023/10/28 11:16:32;;;;;;;7.47;2.90;;;16.10;1.00;;;;;;4994007;28;20436;-69
2023/10/28 11:19:01;;;;;;;3.70;2.10;;;16.20;1.00;;;;;;4993965;28;20416;-69
2023/10/28 11:21:28;;;;;;;2.87;2.40;;;16.20;1.00;;;;;;4994006;28;20424;-69
2023/10/28 11:23:54;;;;;;;4.13;2.30;;;16.10;1.00;;;;;;4993883;28;20420;-69
2023/10/28 11:26:21;;;;;;;3.80;2.40;;;16.00;1.00;;;;;;4993807;28;21000;-68
2023/10/28 11:28:47;;;;;;;4.67;2.53;;;15.80;1.00;;;;;;4993886;28;20511;-68
2023/10/28 11:31:13;;;;;;;2.53;2.10;;;15.90;1.00;;;;;;4993393;28;20905;-68
2023/10/28 11:33:40;;;;;;;3.40;2.10;;;15.70;1.00;;;;;;4993780;28;20217;-68
2023/10/28 11:36:07;;;;;;;4.47;2.20;;;15.70;1.00;;;;;;4993916;28;20176;-68
2023/10/28 11:38:33;;;;;;;4.53;2.80;;;15.90;1.00;;;;;;4993977;28;20454;-69
2023/10/28 11:41:08;;;;;;;4.40;2.87;;;15.80;1.00;;;;;;4993265;28;20420;-68
2023/10/28 11:43:35;;;;;;;6.80;2.40;;;15.80;1.00;;;;;;4993897;28;20447;-68
2023/10/28 11:46:00;;;;;;;5.00;2.73;;;15.80;1.00;;;;;;4993364;28;20427;-69
2023/10/28 11:48:27;;;;;;;7.00;2.20;;;15.60;1.00;;;;;;4993220;28;20436;-68
2023/10/28 11:50:53;;;;;;;6.87;2.77;;;15.30;1.00;;;;;;4993195;28;20533;-68
2023/10/28 11:53:23;;;;;;;4.57;2.43;;;15.10;1.00;;;;;;4993540;28;20769;-68
2023/10/28 11:55:49;;;;;;;4.20;2.10;;;15.00;1.00;;;;;;4992015;28;20808;-69
2023/10/28 11:58:14;;;;;;;6.00;2.20;;;15.00;1.00;;;;;;4993330;28;20471;-68
2023/10/28 12:00:40;;;;;;;7.47;2.03;;;15.00;1.00;;;;;;4992946;28;20172;-68
2023/10/28 12:03:05;;;;;;;3.13;1.97;;;15.00;1.00;;;;;;4993115;28;20651;-68
2023/10/28 12:05:33;;;;;;;15.43;2.97;;;15.00;1.00;;;;;;4992558;28;20173;-68
2023/10/28 12:07:58;;;;;;;6.83;2.30;;;15.20;1.00;;;;;;4992800;28;20220;-67
2023/10/28 12:10:25;;;;;;;4.50;1.70;;;15.40;1.00;;;;;;4992706;28;20504;-69
2023/10/28 12:12:50;;;;;;;4.07;1.90;;;15.50;1.00;;;;;;4992728;28;20209;-69
2023/10/28 12:15:16;;;;;;;6.10;2.47;;;15.60;1.00;;;;;;4992790;28;20431;-68
2023/10/28 12:17:44;;;;;;;2.43;1.80;;;15.70;1.00;;;;;;4992660;28;20197;-69
2023/10/28 12:20:14;;;;;;;5.67;2.00;;;15.80;1.00;;;;;;5007309;28;20180;-69
2023/10/28 12:22:43;;;;;;;4.87;2.20;;;16.10;1.00;;;;;;4992684;28;20851;-68
2023/10/28 12:25:13;;;;;;;5.20;2.27;;;16.40;1.00;;;;;;4992597;28;20418;-68
2023/10/28 12:27:39;;;;;;;3.40;2.10;;;16.80;1.00;;;;;;4992687;28;20929;-69
2023/10/28 12:30:06;;;;;;;5.23;2.40;;;17.10;1.00;;;;;;4992429;28;20459;-69
2023/10/28 12:32:32;;;;;;;6.40;2.70;;;17.40;1.00;;;;;;4992584;28;20547;-68
2023/10/28 12:34:57;;;;;;;5.80;2.50;;;17.70;1.00;;;;;;4992930;28;20422;-68
2023/10/28 12:37:23;;;;;;;6.97;2.70;;;18.00;1.00;;;;;;4992350;28;20806;-69
2023/10/28 12:39:49;;;;;;;5.00;2.53;;;18.30;1.00;;;;;;4992489;28;20196;-68
2023/10/28 12:42:15;;;;;;;4.37;2.17;;;18.90;1.00;;;;;;5007600;28;20420;-68
2023/10/28 12:44:41;;;;;;;4.03;2.50;;;18.60;1.00;;;;;;4992410;28;20711;-68
2023/10/28 12:47:06;;;;;;;5.20;2.37;;;18.50;1.00;;;;;;4992154;28;20443;-68
2023/10/28 12:49:32;;;;;;;2.57;2.33;;;18.70;1.00;;;;;;4992022;28;20180;-69
2023/10/28 12:51:57;;;;;;;4.30;2.87;;;19.00;1.00;;;;;;4992186;28;20211;-68
2023/10/28 12:54:24;;;;;;;3.93;3.00;;;19.00;1.00;;;;;;4992238;28;20209;-68